Time;durP1;ratioP1;P1;durP2;ratioP2;P2;SDS_P1;SDS_P2;PMS_P1;PMS_P2;Temp;Humidity;BMP_temperature;BMP_pressure;BME280_temperature;BME280_humidity;BME280_pressure;Samples;Min_cycle;Max_cycle;Signal;HPM_P1;HPM_P2
2021/05/22 00:00:37;;;;;;;;;;;;;;;14.83;52.05;99543.80;102312;1123;80736;-59
2021/05/22 00:02:56;;;;;;;;;;;;;;;14.81;52.28;99554.05;102324;1123;79599;-60
2021/05/22 00:05:01;;;;;;;;;;;;;;;14.78;52.38;99548.03;102327;1123;80033;-59
2021/05/22 00:07:06;;;;;;;;;;;;;;;14.76;52.31;99544.73;102313;1123;81989;-59
2021/05/22 00:09:13;;;;;;;;;;;;;;;14.76;52.40;99543.91;102337;1123;80971;-59
2021/05/22 00:11:18;;;;;;;;;;;;;;;14.74;52.86;99543.31;102342;1123;80048;-59
2021/05/22 00:13:22;;;;;;;;;;;;;;;14.73;52.82;99547.92;102365;1123;81800;-59
2021/05/22 00:15:27;;;;;;;;;;;;;;;14.70;53.32;99540.23;102337;1123;81486;-59
2021/05/22 00:17:32;;;;;;;;;;;;;;;14.70;53.08;99545.67;102330;1123;80800;-59
2021/05/22 00:19:36;;;;;;;;;;;;;;;14.68;53.13;99547.81;102332;1123;81453;-59
2021/05/22 00:21:41;;;;;;;;;;;;;;;14.67;53.43;99548.86;102314;1123;81928;-59
2021/05/22 00:23:46;;;;;;;;;;;;;;;14.64;53.31;99541.17;102326;1123;80650;-58
2021/05/22 00:25:51;;;;;;;;;;;;;;;14.64;53.41;99546.61;102329;1123;80982;-59
2021/05/22 00:27:55;;;;;;;;;;;;;;;14.64;53.56;99535.74;102303;1123;80992;-61
2021/05/22 00:30:00;;;;;;;;;;;;;;;14.62;53.87;99539.77;102328;1123;80990;-62
2021/05/22 00:32:06;;;;;;;;;;;;;;;14.57;54.52;99535.05;102330;1123;81093;-65
2021/05/22 00:34:10;;;;;;;;;;;;;;;14.52;54.63;99534.93;102346;1123;80554;-65
2021/05/22 00:36:15;;;;;;;;;;;;;;;14.46;54.97;99535.87;102325;1123;80821;-59
2021/05/22 00:38:21;;;;;;;;;;;;;;;14.42;55.15;99540.09;102335;1123;81580;-58
2021/05/22 00:40:28;;;;;;;;;;;;;;;14.37;55.38;99559.00;102330;1123;79613;-57
2021/05/22 00:42:36;;;;;;;;;;;;;;;14.34;55.48;99553.23;102326;1123;82456;-59
2021/05/22 00:45:08;;;;;;;;;;;;;;;14.31;55.92;99551.75;102359;1123;79952;-59
2021/05/22 00:47:13;;;;;;;;;;;;;;;14.27;55.84;99547.86;102342;1123;81625;-62
2021/05/22 00:49:21;;;;;;;;;;;;;;;14.24;56.12;99548.33;102327;1123;81379;-61
2021/05/22 00:51:26;;;;;;;;;;;;;;;14.21;56.24;99556.94;102338;1123;81245;-62
2021/05/22 00:53:34;;;;;;;;;;;;;;;14.20;56.19;99563.45;102365;1123;81386;-61
2021/05/22 00:55:39;;;;;;;;;;;;;;;14.15;56.52;99563.30;102326;1123;81263;-62
2021/05/22 00:57:47;;;;;;;;;;;;;;;14.13;56.54;99551.84;102347;1124;82472;-58
2021/05/22 00:59:52;;;;;;;;;;;;;;;14.09;56.84;99558.82;102327;1123;80962;-59
2021/05/22 01:02:01;;;;;;;;;;;;;;;14.10;56.60;99563.17;102343;1123;81506;-61
2021/05/22 01:04:06;;;;;;;;;;;;;;;14.11;56.71;99575.70;102323;1123;82067;-62
2021/05/22 01:06:16;;;;;;;;;;;;;;;14.09;56.71;99566.97;102360;1123;80919;-60
2021/05/22 01:08:25;;;;;;;;;;;;;;;14.09;56.72;99561.53;102350;1123;81391;-60
2021/05/22 01:10:30;;;;;;;;;;;;;;;14.06;56.92;99562.80;102320;1123;80256;-59
2021/05/22 01:12:37;;;;;;;;;;;;;;;14.05;56.92;99569.31;102354;1123;81443;-58
2021/05/22 01:14:46;;;;;;;;;;;;;;;14.04;57.01;99569.52;102315;1123;80847;-60
2021/05/22 01:16:54;;;;;;;;;;;;;;;14.04;57.26;99569.52;102352;1124;81024;-60
2021/05/22 01:19:01;;;;;;;;;;;;;;;14.02;57.35;99571.66;102340;1123;81285;-60
2021/05/22 01:21:08;;;;;;;;;;;;;;;13.99;57.17;99567.52;102362;1123;79889;-61
2021/05/22 01:23:21;;;;;;;;;;;;;;;13.95;57.43;99568.22;102331;1123;81389;-58
2021/05/22 01:25:31;;;;;;;;;;;;;;;13.93;57.37;99562.17;102331;1123;81496;-60
2021/05/22 01:27:37;;;;;;;;;;;;;;;13.89;57.40;99558.28;102342;1123;80017;-61
2021/05/22 01:29:42;;;;;;;;;;;;;;;13.86;57.54;99561.45;102330;1123;80960;-60
2021/05/22 01:31:50;;;;;;;;;;;;;;;13.81;57.61;99556.73;102352;1123;81010;-59
2021/05/22 01:33:55;;;;;;;;;;;;;;;13.77;57.74;99552.80;102351;1123;81507;-58
2021/05/22 01:36:04;;;;;;;;;;;;;;;13.74;57.97;99557.86;102332;1123;81626;-58
2021/05/22 01:38:09;;;;;;;;;;;;;;;13.71;58.01;99552.88;102345;1123;79843;-60
2021/05/22 01:40:15;;;;;;;;;;;;;;;13.66;58.05;99550.03;102321;1123;81003;-61
2021/05/22 01:42:20;;;;;;;;;;;;;;;13.62;58.22;99551.57;102347;1123;81320;-60
2021/05/22 01:44:28;;;;;;;;;;;;;;;13.58;58.41;99546.59;102342;1123;82403;-61
2021/05/22 01:46:33;;;;;;;;;;;;;;;13.53;58.49;99551.05;102343;1123;80986;-60
2021/05/22 01:48:38;;;;;;;;;;;;;;;13.48;58.65;99551.75;102339;1123;81204;-60
2021/05/22 01:50:45;;;;;;;;;;;;;;;13.43;58.70;99554.30;102330;1123;80851;-60
2021/05/22 01:52:52;;;;;;;;;;;;;;;13.38;58.72;99543.30;102325;1123;81691;-60
2021/05/22 01:54:56;;;;;;;;;;;;;;;13.33;59.04;99542.33;102337;1123;80820;-61
2021/05/22 01:57:02;;;;;;;;;;;;;;;13.28;59.00;99547.61;102319;1123;80310;-61
2021/05/22 01:59:07;;;;;;;;;;;;;;;13.24;59.34;99559.99;102326;1123;80872;-61
2021/05/22 02:01:15;;;;;;;;;;;;;;;13.21;59.48;99552.30;102307;1123;81408;-60
2021/05/22 02:03:27;;;;;;;;;;;;;;;13.16;59.66;99550.25;102350;1123;80584;-61
2021/05/22 02:05:32;;;;;;;;;;;;;;;13.14;59.79;99551.53;102347;1123;81747;-62
2021/05/22 02:07:37;;;;;;;;;;;;;;;13.09;59.98;99559.53;102317;1123;80381;-61
2021/05/22 02:09:42;;;;;;;;;;;;;;;13.05;60.39;99558.30;102314;1123;81351;-61
2021/05/22 02:11:49;;;;;;;;;;;;;;;13.01;60.08;99566.05;102306;1123;81221;-62
2021/05/22 02:13:55;;;;;;;;;;;;;;;12.94;60.40;99568.82;102357;1124;81016;-62
2021/05/22 02:16:01;;;;;;;;;;;;;;;12.90;60.34;99575.77;102325;1123;82461;-62
2021/05/22 02:18:06;;;;;;;;;;;;;;;12.85;60.67;99572.90;102361;1123;81507;-60
2021/05/22 02:20:16;;;;;;;;;;;;;;;12.81;60.91;99563.55;102314;1123;80440;-60
2021/05/22 02:22:22;;;;;;;;;;;;;;;12.81;61.15;99562.71;102337;1123;81022;-60
2021/05/22 02:24:27;;;;;;;;;;;;;;;12.79;61.02;99568.37;102317;1123;80848;-59
2021/05/22 02:26:32;;;;;;;;;;;;;;;12.79;61.49;99564.83;102325;1123;80760;-60
2021/05/22 02:28:40;;;;;;;;;;;;;;;12.76;61.68;99570.69;102322;1123;81253;-59
2021/05/22 02:30:46;;;;;;;;;;;;;;;12.77;61.83;99556.90;102326;1123;82146;-60
2021/05/22 02:32:51;;;;;;;;;;;;;;;12.77;62.01;99556.09;102327;1124;81327;-60
2021/05/22 02:34:58;;;;;;;;;;;;;;;12.80;62.06;99547.52;102314;1123;82678;-60
2021/05/22 02:37:03;;;;;;;;;;;;;;;12.82;62.20;99538.11;102339;1123;81776;-60
2021/05/22 02:39:08;;;;;;;;;;;;;;;12.85;62.25;99547.67;102335;1123;81090;-61
2021/05/22 02:41:14;;;;;;;;;;;;;;;12.90;62.35;99535.10;102336;1123;81536;-60
2021/05/22 02:43:18;;;;;;;;;;;;;;;12.88;62.34;99547.22;102330;1123;82327;-60
2021/05/22 02:45:25;;;;;;;;;;;;;;;12.88;62.38;99545.31;102333;1123;80484;-60
2021/05/22 02:47:31;;;;;;;;;;;;;;;12.90;62.40;99553.24;102351;1123;80691;-60
2021/05/22 02:49:41;;;;;;;;;;;;;;;12.91;62.43;99563.05;102331;1123;81266;-61
2021/05/22 02:51:47;;;;;;;;;;;;;;;12.90;62.43;99562.20;102301;1124;81327;-59
2021/05/22 02:53:55;;;;;;;;;;;;;;;12.88;63.03;99558.88;102313;1123;82337;-60
2021/05/22 02:56:03;;;;;;;;;;;;;;;12.88;62.81;99564.30;102320;1123;80952;-60
2021/05/22 02:58:08;;;;;;;;;;;;;;;12.88;62.88;99574.33;102338;1123;80720;-61
2021/05/22 03:00:14;;;;;;;;;;;;;;;12.87;62.95;99567.23;102325;1123;80358;-61
2021/05/22 03:02:19;;;;;;;;;;;;;;;12.87;63.01;99583.51;102352;1123;80809;-60
2021/05/22 03:04:24;;;;;;;;;;;;;;;12.82;63.17;99578.77;102324;1123;81429;-60
2021/05/22 03:06:30;;;;;;;;;;;;;;;12.80;63.28;99588.98;102356;1123;80520;-60
2021/05/22 03:08:44;;;;;;;;;;;;;;;12.78;63.49;99585.67;102355;1123;79586;-59
2021/05/22 03:10:52;;;;;;;;;;;;;;;12.77;63.52;99585.91;102354;1123;81161;-59
2021/05/22 03:12:56;;;;;;;;;;;;;;;12.74;63.58;99591.77;102337;1123;80739;-59
2021/05/22 03:15:02;;;;;;;;;;;;;;;12.73;63.68;99590.94;102329;1123;80413;-59
2021/05/22 03:17:07;;;;;;;;;;;;;;;12.72;63.80;99594.69;102342;1123;81716;-60
2021/05/22 03:19:12;;;;;;;;;;;;;;;12.70;63.94;99594.09;102326;1123;81144;-60
2021/05/22 03:21:16;;;;;;;;;;;;;;;12.69;64.13;99597.03;102315;1123;80821;-59
2021/05/22 03:23:21;;;;;;;;;;;;;;;12.70;64.20;99594.09;102342;1123;81025;-59
2021/05/22 03:25:26;;;;;;;;;;;;;;;12.67;64.22;99594.53;102334;1123;82098;-59
2021/05/22 03:27:31;;;;;;;;;;;;;;;12.68;64.25;99603.50;102336;1123;80518;-60
2021/05/22 03:29:36;;;;;;;;;;;;;;;12.69;64.53;99594.33;102327;1123;81134;-60
2021/05/22 03:31:41;;;;;;;;;;;;;;;12.71;64.63;99601.18;102368;1123;79880;-60
2021/05/22 03:33:45;;;;;;;;;;;;;;;12.72;65.99;99604.69;102325;1123;82095;-60
2021/05/22 03:35:53;;;;;;;;;;;;;;;12.72;64.95;99607.41;102319;1123;81181;-60
2021/05/22 03:37:58;;;;;;;;;;;;;;;12.72;65.11;99607.41;102324;1123;80030;-60
2021/05/22 03:40:05;;;;;;;;;;;;;;;12.73;65.15;99599.07;102326;1123;81142;-60
2021/05/22 03:42:11;;;;;;;;;;;;;;;12.81;65.17;99606.91;102380;1123;82010;-60
2021/05/22 03:44:15;;;;;;;;;;;;;;;12.94;65.52;99605.94;102315;1123;82230;-60
2021/05/22 03:46:20;;;;;;;;;;;;;;;12.99;65.21;99612.34;102329;1123;81271;-60
2021/05/22 03:48:25;;;;;;;;;;;;;;;13.05;65.21;99618.76;102356;1124;81777;-60
2021/05/22 03:50:30;;;;;;;;;;;;;;;13.11;65.34;99612.48;102287;1124;81199;-59
2021/05/22 03:52:34;;;;;;;;;;;;;;;13.11;65.35;99598.09;102340;1123;80468;-60
2021/05/22 03:54:43;;;;;;;;;;;;;;;13.23;65.23;99599.00;102330;1123;81330;-61
2021/05/22 03:56:48;;;;;;;;;;;;;;;13.34;65.04;99598.25;102344;1123;82237;-60
2021/05/22 03:58:53;;;;;;;;;;;;;;;13.37;65.11;99605.94;102230;1124;80861;-58
2021/05/22 04:00:58;;;;;;;;;;;;;;;13.39;65.01;99592.97;102313;1123;80617;-59
2021/05/22 04:03:05;;;;;;;;;;;;;;;13.41;64.88;99599.83;102431;1120;80489;-60
2021/05/22 04:05:11;;;;;;;;;;;;;;;13.37;65.03;99592.38;102460;1120;80543;-60
2021/05/22 04:07:16;;;;;;;;;;;;;;;13.34;65.25;99585.52;102484;1120;81323;-59
2021/05/22 04:09:20;;;;;;;;;;;;;;;13.34;65.14;99588.23;102304;1123;82063;-60
2021/05/22 04:11:25;;;;;;;;;;;;;;;13.36;65.29;99596.97;102421;1120;80193;-60
2021/05/22 04:13:30;;;;;;;;;;;;;;;13.46;64.95;99593.70;102439;1121;81358;-60
2021/05/22 04:15:35;;;;;;;;;;;;;;;13.58;65.19;99592.73;102458;1120;79915;-58
2021/05/22 04:17:39;;;;;;;;;;;;;;;13.62;65.28;99584.97;102450;1120;80858;-60
2021/05/22 04:19:44;;;;;;;;;;;;;;;13.60;65.07;99579.75;102443;1120;80140;-60
2021/05/22 04:21:49;;;;;;;;;;;;;;;13.64;64.79;99582.02;102461;1120;81364;-60
2021/05/22 04:23:54;;;;;;;;;;;;;;;13.70;65.02;99581.10;102451;1120;81018;-59
2021/05/22 04:26:01;;;;;;;;;;;;;;;13.74;64.87;99590.42;102437;1120;82439;-59
2021/05/22 04:28:07;;;;;;;;;;;;;;;13.88;64.92;99581.05;102418;1120;80169;-59
2021/05/22 04:30:17;;;;;;;;;;;;;;;13.99;64.73;99582.97;102464;1120;81414;-60
2021/05/22 04:32:21;;;;;;;;;;;;;;;14.16;64.80;99586.70;102433;1121;81481;-60
2021/05/22 04:34:29;;;;;;;;;;;;;;;14.38;64.43;99587.02;102439;1121;82147;-60
2021/05/22 04:36:33;;;;;;;;;;;;;;;14.77;64.69;99583.63;102421;1121;80062;-59
2021/05/22 04:38:38;;;;;;;;;;;;;;;15.72;63.71;99584.08;102316;1123;81504;-60
2021/05/22 04:40:42;;;;;;;;;;;;;;;15.84;62.93;99588.42;102356;1123;79974;-60
2021/05/22 04:42:47;;;;;;;;;;;;;;;16.34;62.23;99593.95;102330;1123;80515;-60
2021/05/22 04:44:52;;;;;;;;;;;;;;;16.38;61.47;99588.84;102319;1123;81263;-60
2021/05/22 04:46:56;;;;;;;;;;;;;;;16.36;61.15;99586.38;102342;1123;81671;-59
2021/05/22 04:49:01;;;;;;;;;;;;;;;16.55;60.85;99583.43;102314;1123;80299;-59
2021/05/22 04:51:10;;;;;;;;;;;;;;;16.82;60.72;99590.70;102335;1123;81124;-60
2021/05/22 04:53:15;;;;;;;;;;;;;;;17.22;59.98;99578.73;102310;1123;81252;-60
2021/05/22 04:55:23;;;;;;;;;;;;;;;17.87;59.72;99586.94;102324;1123;81098;-60
2021/05/22 04:57:27;;;;;;;;;;;;;;;18.42;58.20;99589.41;102350;1123;80677;-58
2021/05/22 04:59:32;;;;;;;;;;;;;;;19.12;56.78;99600.08;102327;1123;82214;-59
2021/05/22 05:01:37;;;;;;;;;;;;;;;19.49;54.82;99594.58;102362;1123;82407;-59
2021/05/22 05:03:41;;;;;;;;;;;;;;;19.97;54.41;99591.46;102340;1123;80736;-62
2021/05/22 05:05:46;;;;;;;;;;;;;;;19.68;53.94;99603.98;102348;1123;80219;-60
2021/05/22 05:07:51;;;;;;;;;;;;;;;19.45;53.79;99604.44;102332;1123;81410;-59
2021/05/22 05:09:55;;;;;;;;;;;;;;;19.13;53.42;99612.70;102354;1123;81216;-59
2021/05/22 05:12:02;;;;;;;;;;;;;;;18.81;53.38;99620.97;102347;1123;80894;-59
2021/05/22 05:14:07;;;;;;;;;;;;;;;18.38;53.67;99621.91;102354;1123;81358;-60
2021/05/22 05:16:13;;;;;;;;;;;;;;;18.15;54.19;99614.86;102323;1123;80109;-60
2021/05/22 05:18:21;;;;;;;;;;;;;;;17.93;54.23;99605.88;102315;1124;80508;-60
2021/05/22 05:20:26;;;;;;;;;;;;;;;17.71;54.62;99599.60;102331;1123;79853;-60
2021/05/22 05:22:35;;;;;;;;;;;;;;;17.56;54.68;99597.50;102320;1123;80386;-59
2021/05/22 05:24:42;;;;;;;;;;;;;;;17.47;54.99;99598.98;102326;1123;80627;-59
2021/05/22 05:26:50;;;;;;;;;;;;;;;17.50;55.31;99594.92;102350;1123;81616;-60
2021/05/22 05:28:54;;;;;;;;;;;;;;;17.45;55.27;99595.69;102318;1123;81085;-59
2021/05/22 05:30:59;;;;;;;;;;;;;;;17.56;55.49;99585.75;102314;1123;84242;-60
2021/05/22 05:33:05;;;;;;;;;;;;;;;17.71;55.42;99590.58;102335;1123;79656;-60
2021/05/22 05:35:14;;;;;;;;;;;;;;;17.77;54.99;99589.56;102340;1123;81047;-60
2021/05/22 05:37:22;;;;;;;;;;;;;;;17.85;54.75;99583.64;102364;1120;81934;-60
2021/05/22 05:39:27;;;;;;;;;;;;;;;17.95;54.74;99581.84;102417;1120;81704;-59
2021/05/22 05:41:31;;;;;;;;;;;;;;;18.34;54.51;99585.24;102418;1120;81711;-59
2021/05/22 05:43:36;;;;;;;;;;;;;;;18.54;54.47;99587.36;102456;1120;81197;-60
2021/05/22 05:45:41;;;;;;;;;;;;;;;18.56;53.57;99590.66;102454;1120;81407;-59
2021/05/22 05:47:46;;;;;;;;;;;;;;;18.24;53.50;99598.80;102440;1120;80876;-59
2021/05/22 05:49:50;;;;;;;;;;;;;;;18.09;53.62;99590.45;102453;1120;81131;-59
2021/05/22 05:51:55;;;;;;;;;;;;;;;17.75;53.88;99594.44;102448;1121;81528;-59
2021/05/22 05:54:00;;;;;;;;;;;;;;;17.57;54.32;99595.60;102436;1120;80987;-59
2021/05/22 05:56:05;;;;;;;;;;;;;;;17.45;54.22;99594.86;102444;1120;82130;-59
2021/05/22 05:58:10;;;;;;;;;;;;;;;17.29;54.47;99601.20;102452;1120;82662;-62
2021/05/22 06:00:16;;;;;;;;;;;;;;;17.22;54.38;99611.48;102452;1120;80613;-60
2021/05/22 06:02:21;;;;;;;;;;;;;;;17.11;54.66;99600.40;102459;1123;80316;-61
2021/05/22 06:04:26;;;;;;;;;;;;;;;16.99;55.15;99605.16;102432;1121;79972;-60
2021/05/22 06:06:31;;;;;;;;;;;;;;;16.97;55.16;99607.31;102446;1120;81219;-61
2021/05/22 06:08:35;;;;;;;;;;;;;;;17.00;55.63;99609.52;102458;1120;81652;-60
2021/05/22 06:10:43;;;;;;;;;;;;;;;17.39;55.53;99607.62;102460;1121;81495;-61
2021/05/22 06:12:49;;;;;;;;;;;;;;;18.11;55.56;99599.22;102456;1120;81063;-61
2021/05/22 06:15:04;;;;;;;;;;;;;;;18.38;54.31;99600.03;102483;1120;81552;-61
2021/05/22 06:17:09;;;;;;;;;;;;;;;18.35;53.94;99592.34;102432;1120;81524;-61
2021/05/22 06:19:13;;;;;;;;;;;;;;;18.23;53.83;99587.06;102452;1120;80803;-61
2021/05/22 06:21:18;;;;;;;;;;;;;;;18.06;53.90;99591.80;102429;1120;80858;-60
2021/05/22 06:23:22;;;;;;;;;;;;;;;17.91;53.80;99599.81;102454;1121;79905;-60
2021/05/22 06:25:30;;;;;;;;;;;;;;;17.92;54.01;99585.08;102449;1121;81453;-60
2021/05/22 06:27:35;;;;;;;;;;;;;;;18.09;54.52;99591.28;102481;1120;80592;-60
2021/05/22 06:29:40;;;;;;;;;;;;;;;18.39;53.90;99579.81;102454;1121;79955;-60
2021/05/22 06:31:44;;;;;;;;;;;;;;;18.65;53.65;99580.89;102448;1120;81608;-59
2021/05/22 06:33:49;;;;;;;;;;;;;;;18.52;53.01;99579.41;102439;1120;80881;-60
2021/05/22 06:35:57;;;;;;;;;;;;;;;18.93;53.73;99580.53;102433;1121;81123;-59
2021/05/22 06:38:01;;;;;;;;;;;;;;;20.92;53.18;99581.70;102461;1121;81468;-60
2021/05/22 06:40:08;;;;;;;;;;;;;;;22.26;49.18;99591.67;102439;1120;82064;-59
2021/05/22 06:42:13;;;;;;;;;;;;;;;22.20;47.26;99598.30;102467;1120;80998;-63
2021/05/22 06:44:23;;;;;;;;;;;;;;;21.38;47.86;99590.69;102468;1120;81810;-60
2021/05/22 06:46:49;;;;;;;;;;;;;;;20.99;48.25;99598.70;102443;1120;80255;-61
2021/05/22 06:48:58;;;;;;;;;;;;;;;20.75;47.95;99605.86;102433;1120;82600;-61
2021/05/22 06:51:07;;;;;;;;;;;;;;;20.61;48.29;99602.84;102478;1120;82153;-60
2021/05/22 06:53:15;;;;;;;;;;;;;;;20.41;48.40;99598.16;102444;1121;81130;-60
2021/05/22 06:55:22;;;;;;;;;;;;;;;20.24;48.42;99603.10;102454;1120;80209;-61
2021/05/22 06:57:30;;;;;;;;;;;;;;;19.90;48.20;99590.91;102308;1124;80209;-61
2021/05/22 06:59:35;;;;;;;;;;;;;;;19.65;48.64;99596.29;102435;1120;80664;-61
2021/05/22 07:01:40;;;;;;;;;;;;;;;19.63;48.70;99603.97;102460;1121;81802;-62
2021/05/22 07:03:48;;;;;;;;;;;;;;;19.51;48.92;99600.61;102444;1120;81644;-64
2021/05/22 07:05:53;;;;;;;;;;;;;;;19.38;49.07;99605.50;102332;1123;80469;-60
2021/05/22 07:07:59;;;;;;;;;;;;;;;19.21;49.14;99610.29;102296;1123;81994;-60
2021/05/22 07:10:06;;;;;;;;;;;;;;;19.09;49.52;99595.96;102323;1124;81340;-59
2021/05/22 07:12:11;;;;;;;;;;;;;;;19.05;49.72;99599.50;102351;1124;81207;-60
2021/05/22 07:14:15;;;;;;;;;;;;;;;18.91;49.81;99599.14;102309;1124;81522;-60
2021/05/22 07:16:20;;;;;;;;;;;;;;;18.85;50.05;99603.75;102318;1124;80448;-60
2021/05/22 07:18:25;;;;;;;;;;;;;;;18.80;50.25;99611.09;102316;1124;81487;-60
2021/05/22 07:20:29;;;;;;;;;;;;;;;18.74;50.66;99610.23;102315;1124;81005;-60
2021/05/22 07:22:35;;;;;;;;;;;;;;;18.59;50.46;99612.02;102316;1124;81421;-60
2021/05/22 07:24:40;;;;;;;;;;;;;;;18.31;50.82;99615.00;102341;1123;81404;-60
2021/05/22 07:26:49;;;;;;;;;;;;;;;18.28;50.70;99606.24;102310;1124;81726;-59
2021/05/22 07:28:56;;;;;;;;;;;;;;;18.06;51.26;99604.63;102292;1124;81089;-60
2021/05/22 07:31:02;;;;;;;;;;;;;;;18.06;51.47;99604.63;102313;1123;81530;-59
2021/05/22 07:33:06;;;;;;;;;;;;;;;18.14;51.46;99606.91;102345;1123;79942;-60
2021/05/22 07:35:15;;;;;;;;;;;;;;;18.16;51.72;99602.83;102460;1094;81169;-61
2021/05/22 07:37:20;;;;;;;;;;;;;;;18.24;51.99;99605.09;102313;1124;81619;-63
2021/05/22 07:39:27;;;;;;;;;;;;;;;18.32;52.03;99600.26;102446;1097;82257;-60
2021/05/22 07:41:34;;;;;;;;;;;;;;;18.34;51.85;99595.34;102315;1124;82099;-60
2021/05/22 07:43:39;;;;;;;;;;;;;;;18.31;51.69;99591.22;102345;1124;81081;-60
2021/05/22 07:45:44;;;;;;;;;;;;;;;18.31;51.72;99593.13;102325;1124;81663;-60
2021/05/22 07:47:51;;;;;;;;;;;;;;;18.32;51.71;99600.26;102344;1124;81462;-58
2021/05/22 07:49:56;;;;;;;;;;;;;;;18.35;51.99;99600.55;102309;1123;80686;-59
2021/05/22 07:52:05;;;;;;;;;;;;;;;18.24;51.80;99596.06;102292;1123;80605;-58
2021/05/22 07:54:13;;;;;;;;;;;;;;;18.25;52.11;99592.25;102337;1124;81116;-56
2021/05/22 07:56:17;;;;;;;;;;;;;;;18.33;52.21;99589.05;102312;1124;80838;-56
2021/05/22 07:58:22;;;;;;;;;;;;;;;18.47;52.04;99592.18;102338;1124;82378;-57
2021/05/22 08:00:30;;;;;;;;;;;;;;;18.47;52.07;99593.01;102303;1124;79694;-56
2021/05/22 08:02:37;;;;;;;;;;;;;;;18.53;52.15;99588.44;102316;1124;81273;-56
2021/05/22 08:04:42;;;;;;;;;;;;;;;18.65;52.07;99580.89;102334;1123;81416;-60
2021/05/22 08:06:47;;;;;;;;;;;;;;;18.76;51.68;99585.36;102302;1124;80619;-58
2021/05/22 08:08:57;;;;;;;;;;;;;;;18.79;51.41;99587.54;102328;1124;80035;-58
2021/05/22 08:11:03;;;;;;;;;;;;;;;18.89;51.24;99593.11;102218;1124;79589;-58
2021/05/22 08:13:09;;;;;;;;;;;;;;;18.89;51.32;99586.80;102284;1124;81954;-56
2021/05/22 08:15:14;;;;;;;;;;;;;;;18.97;51.27;99589.88;102342;1123;80936;-56
2021/05/22 08:17:19;;;;;;;;;;;;;;;19.06;51.47;99585.56;102327;1124;80548;-57
2021/05/22 08:19:27;;;;;;;;;;;;;;;19.08;51.39;99596.23;102348;1124;81529;-58
2021/05/22 08:21:34;;;;;;;;;;;;;;;19.07;51.13;99595.41;102317;1124;82155;-56
2021/05/22 08:23:42;;;;;;;;;;;;;;;19.03;50.83;99590.73;102329;1123;81408;-65
2021/05/22 08:25:46;;;;;;;;;;;;;;;19.00;50.87;99597.56;102305;1124;81829;-60
2021/05/22 08:27:52;;;;;;;;;;;;;;;19.05;50.99;99602.24;102304;1124;83272;-62
2021/05/22 08:29:57;;;;;;;;;;;;;;;18.96;51.57;99606.55;102332;1123;81661;-59
2021/05/22 08:32:07;;;;;;;;;;;;;;;18.91;50.88;99599.14;102301;1124;82129;-60
2021/05/22 08:34:12;;;;;;;;;;;;;;;18.85;50.87;99608.39;102337;1124;82258;-61
2021/05/22 08:36:17;;;;;;;;;;;;;;;18.75;50.98;99605.59;102327;1123;81603;-61
2021/05/22 08:38:22;;;;;;;;;;;;;;;18.62;51.47;99606.83;102319;1124;80542;-61
2021/05/22 08:40:28;;;;;;;;;;;;;;;18.54;51.48;99604.58;102312;1124;80426;-60
2021/05/22 08:42:36;;;;;;;;;;;;;;;18.48;51.97;99607.55;102328;1124;81793;-61
2021/05/22 08:44:44;;;;;;;;;;;;;;;18.39;51.90;99609.06;102309;1123;82470;-61
2021/05/22 08:46:49;;;;;;;;;;;;;;;18.31;52.43;99604.89;102322;1124;80262;-60
2021/05/22 08:48:54;;;;;;;;;;;;;;;18.22;52.82;99614.64;102356;1123;80632;-58
2021/05/22 08:50:59;;;;;;;;;;;;;;;17.98;52.77;99614.13;102319;1124;80955;-59
2021/05/22 08:53:07;;;;;;;;;;;;;;;17.89;53.61;99606.63;102318;1124;80439;-59
2021/05/22 08:55:14;;;;;;;;;;;;;;;17.84;53.87;99603.84;102326;1124;82272;-61
2021/05/22 08:57:20;;;;;;;;;;;;;;;17.84;54.25;99618.33;102305;1124;79836;-61
2021/05/22 08:59:27;;;;;;;;;;;;;;;17.84;54.59;99617.50;102322;1124;81430;-61
2021/05/22 09:01:37;;;;;;;;;;;;;;;17.77;54.45;99617.72;102313;1123;81801;-60
2021/05/22 09:03:46;;;;;;;;;;;;;;;17.75;54.63;99611.66;102335;1123;81642;-59
2021/05/22 09:05:51;;;;;;;;;;;;;;;17.60;55.20;99609.58;102325;1124;82043;-61
2021/05/22 09:07:59;;;;;;;;;;;;;;;17.46;55.70;99600.08;102290;1124;80582;-60
2021/05/22 09:10:11;;;;;;;;;;;;;;;17.35;56.62;99617.41;102277;1124;80904;-60
2021/05/22 09:12:19;;;;;;;;;;;;;;;17.24;57.31;99621.08;102326;1124;80519;-61
2021/05/22 09:14:44;;;;;;;;;;;;;;;17.07;57.10;99612.08;102346;1124;79889;-62
2021/05/22 09:16:52;;;;;;;;;;;;;;;16.91;57.93;99616.49;102311;1123;80673;-61
2021/05/22 09:19:02;;;;;;;;;;;;;;;16.90;58.13;99613.99;102342;1124;80984;-60
2021/05/22 09:21:10;;;;;;;;;;;;;;;16.72;58.73;99617.83;102304;1123;79598;-60
2021/05/22 09:23:16;;;;;;;;;;;;;;;16.71;59.21;99624.34;102326;1123;80704;-59
2021/05/22 09:25:24;;;;;;;;;;;;;;;16.58;59.38;99618.39;102321;1124;81294;-60
2021/05/22 09:27:33;;;;;;;;;;;;;;;16.47;60.16;99628.27;102321;1124;80961;-61
2021/05/22 09:29:38;;;;;;;;;;;;;;;16.39;61.09;99626.78;102341;1124;80793;-62
2021/05/22 09:31:43;;;;;;;;;;;;;;;16.33;60.82;99625.03;102298;1124;81322;-62
2021/05/22 09:33:48;;;;;;;;;;;;;;;16.25;61.35;99625.43;102336;1124;80788;-61
2021/05/22 09:35:54;;;;;;;;;;;;;;;16.14;61.65;99626.31;102325;1123;81636;-60
2021/05/22 09:38:01;;;;;;;;;;;;;;;16.02;62.40;99622.80;102306;1124;80628;-60
2021/05/22 09:40:09;;;;;;;;;;;;;;;15.99;62.78;99625.20;102366;1123;80548;-68
2021/05/22 09:42:13;;;;;;;;;;;;;;;15.95;63.05;99627.58;102315;1124;81246;-69
2021/05/22 09:44:25;;;;;;;;;;;;;;;15.92;63.67;99626.17;102317;1124;80018;-70
2021/05/22 09:46:30;;;;;;;;;;;;;;;15.92;63.65;99628.89;102317;1124;81628;-70
2021/05/22 09:48:36;;;;;;;;;;;;;;;15.96;64.17;99631.14;102384;1124;80011;-72
2021/05/22 09:50:44;;;;;;;;;;;;;;;15.92;64.46;99620.72;102319;1124;80140;-72
2021/05/22 09:52:49;;;;;;;;;;;;;;;15.92;64.40;99628.89;102321;1124;81759;-75
2021/05/22 09:54:58;;;;;;;;;;;;;;;15.93;64.73;99622.36;102350;1124;81955;-63
2021/05/22 09:57:07;;;;;;;;;;;;;;;15.92;64.74;99628.06;102341;1124;82254;-61
2021/05/22 09:59:15;;;;;;;;;;;;;;;15.77;64.88;99631.30;102321;1124;82473;-64
2021/05/22 10:01:22;;;;;;;;;;;;;;;15.71;65.14;99634.98;102290;1124;81144;-61
2021/05/22 10:03:30;;;;;;;;;;;;;;;15.68;65.63;99638.22;102323;1124;80935;-62
2021/05/22 10:05:36;;;;;;;;;;;;;;;15.61;65.93;99634.78;102288;1124;80691;-58
2021/05/22 10:07:45;;;;;;;;;;;;;;;15.61;65.98;99632.06;102323;1124;80869;-59
2021/05/22 10:10:00;;;;;;;;;;;;;;;15.52;66.28;99630.77;102340;1123;80932;-60
2021/05/22 10:12:09;;;;;;;;;;;;;;;15.55;66.31;99627.56;102319;1124;82445;-79
2021/05/22 10:14:17;;;;;;;;;;;;;;;15.43;66.96;99628.64;102318;1124;80998;-73
2021/05/22 10:16:22;;;;;;;;;;;;;;;15.40;67.08;99620.95;102314;1124;80973;-59
2021/05/22 10:18:31;;;;;;;;;;;;;;;15.33;67.17;99613.73;102311;1124;81570;-61
2021/05/22 10:20:37;;;;;;;;;;;;;;;15.26;67.22;99613.05;102339;1124;81137;-69
2021/05/22 10:22:42;;;;;;;;;;;;;;;15.20;67.43;99610.44;102467;1093;81658;-66
2021/05/22 10:24:48;;;;;;;;;;;;;;;15.21;67.61;99606.67;102305;1123;80723;-67
2021/05/22 10:26:54;;;;;;;;;;;;;;;15.27;67.77;99606.52;102321;1124;82347;-66
2021/05/22 10:28:59;;;;;;;;;;;;;;;15.30;68.04;99613.38;102347;1123;81151;-70
2021/05/22 10:31:04;;;;;;;;;;;;;;;15.21;68.42;99606.67;102314;1124;80663;-69
2021/05/22 10:33:13;;;;;;;;;;;;;;;15.18;68.61;99602.53;102313;1124;80849;-68
2021/05/22 10:35:23;;;;;;;;;;;;;;;15.19;68.37;99600.64;102347;1124;81036;-69
2021/05/22 10:37:46;;;;;;;;;;;;;;;15.17;68.64;99598.14;102344;1123;81040;-62
2021/05/22 10:39:52;;;;;;;;;;;;;;;15.13;68.73;99602.42;102345;1124;81289;-62
2021/05/22 10:41:57;;;;;;;;;;;;;;;15.13;68.85;99586.10;102341;1123;80355;-66
2021/05/22 10:44:02;;;;;;;;;;;;;;;15.15;68.84;99600.28;102330;1124;82346;-63
2021/05/22 10:46:09;;;;;;;;;;;;;;;15.16;69.12;99587.52;102319;1124;79949;-66
2021/05/22 10:48:54;;;;;;;;;;;;;;;15.21;69.28;99593.06;102332;1124;80901;-73